Time;durP1;ratioP1;P1;durP2;ratioP2;P2;SDS_P1;SDS_P2;PMS_P1;PMS_P2;Temp;Humidity;BMP_temperature;BMP_pressure;BME280_temperature;BME280_humidity;BME280_pressure;Samples;Min_cycle;Max_cycle;Signal;HPM_P1;HPM_P2
2022/09/23 00:02:05;;;;;;;2.67;2.30;;;7.40;99.90;;;8.34;100.00;98397.78;5027466;28;20878;-89
2022/09/23 00:04:34;;;;;;;2.73;2.10;;;7.40;99.90;;;8.33;100.00;98396.97;5019512;28;20494;-89
2022/09/23 00:07:03;;;;;;;7.33;2.47;;;7.40;99.90;;;8.32;100.00;98392.75;5028545;28;20446;-89
2022/09/23 00:09:33;;;;;;;2.40;2.03;;;7.40;99.90;;;8.35;100.00;98394.22;5028289;28;20569;-89
2022/09/23 00:12:04;;;;;;;14.00;4.90;;;7.40;99.90;;;8.30;100.00;98402.50;5020287;28;20470;-90
2022/09/23 00:14:41;;;;;;;5.37;2.13;;;7.30;99.90;;;8.30;100.00;98396.50;5024062;28;20466;-90
2022/09/23 00:17:13;;;;;;;6.73;2.30;;;7.30;99.90;;;8.25;100.00;98394.38;5028889;28;20559;-90
2022/09/23 00:19:43;;;;;;;4.20;2.00;;;7.30;99.90;;;8.27;100.00;98392.41;5027675;28;20531;-89
2022/09/23 00:22:13;;;;;;;2.80;1.90;;;7.30;99.90;;;8.24;100.00;98397.13;5026809;28;20597;-89
2022/09/23 00:24:43;;;;;;;2.23;1.93;;;7.30;99.90;;;8.20;100.00;98388.81;5032156;28;20499;-89
2022/09/23 00:27:13;;;;;;;2.17;1.90;;;7.20;99.90;;;8.15;100.00;98393.72;5028035;28;21267;-89
2022/09/23 00:29:42;;;;;;;2.70;1.93;;;7.10;99.90;;;8.15;100.00;98391.09;5024631;28;20525;-88
2022/09/23 00:32:12;;;;;;;2.27;1.70;;;7.20;99.90;;;8.18;100.00;98389.97;5030290;28;21209;-89
2022/09/23 00:34:44;;;;;;;2.70;1.90;;;7.30;99.90;;;8.18;100.00;98390.78;5028512;28;20501;-89
2022/09/23 00:37:12;;;;;;;3.93;2.07;;;7.20;99.90;;;8.14;100.00;98383.44;5032984;28;20525;-89
2022/09/23 00:39:44;;;;;;;2.97;1.83;;;7.20;99.90;;;8.09;100.00;98379.53;5029561;28;20646;-89
2022/09/23 00:42:17;;;;;;;3.50;1.93;;;7.10;99.90;;;8.13;100.00;98385.22;5027102;28;20493;-89
2022/09/23 00:44:53;;;;;;;4.63;2.37;;;7.20;99.90;;;8.15;100.00;98378.09;5028378;28;20488;-89
2022/09/23 00:47:32;;;;;;;2.20;2.10;;;7.20;99.90;;;8.07;100.00;98376.28;5030676;28;20566;-89
2022/09/23 00:50:09;;;;;;;6.10;2.57;;;7.10;99.90;;;8.04;100.00;98375.81;5033139;28;20457;-89
2022/09/23 00:52:39;;;;;;;6.00;1.90;;;7.10;99.90;;;8.05;100.00;98377.44;5027853;28;20452;-88
2022/09/23 00:55:16;;;;;;;2.60;2.30;;;7.00;99.90;;;8.05;100.00;98377.44;5027901;28;20486;-89
2022/09/23 00:57:47;;;;;;;4.53;2.10;;;7.00;99.90;;;8.00;100.00;98377.09;5028978;28;20473;-89
2022/09/23 01:00:17;;;;;;;3.40;2.10;;;7.00;99.90;;;7.99;100.00;98368.47;5025294;28;20450;-90
2022/09/23 01:02:51;;;;;;;2.80;2.20;;;7.10;99.90;;;8.01;100.00;98371.75;5024554;28;20498;-89
2022/09/23 01:05:22;;;;;;;2.20;1.80;;;7.00;99.90;;;7.97;100.00;98369.63;5023591;28;20461;-90
2022/09/23 01:07:54;;;;;;;1.73;1.60;;;7.00;99.90;;;7.82;100.00;98368.63;5023226;28;20952;-89
2022/09/23 01:10:25;;;;;;;2.33;1.93;;;6.90;99.90;;;7.88;100.00;98370.59;5024749;28;20557;-88
2022/09/23 01:13:20;;;;;;;2.50;2.30;;;6.90;99.90;;;7.88;100.00;98360.19;5026424;28;20827;-89
2022/09/23 01:15:59;;;;;;;3.67;2.00;;;6.90;99.90;;;7.84;100.00;98358.88;5024936;28;20526;-89
2022/09/23 01:18:43;;;;;;;2.03;1.80;;;6.90;99.90;;;7.85;100.00;98356.09;5028160;28;20471;-89
2022/09/23 01:21:26;;;;;;;4.70;2.00;;;6.90;99.90;;;7.83;100.00;98347.66;5025775;28;20485;-89
2022/09/23 01:24:53;;;;;;;2.43;1.80;;;6.90;99.90;;;7.81;100.00;98359.22;5024316;28;20470;-89
2022/09/23 01:27:46;;;;;;;3.03;2.07;;;6.90;99.90;;;7.79;100.00;98345.53;5024268;28;20574;-89
2022/09/23 01:30:36;;;;;;;1.50;1.40;;;6.90;99.90;;;7.78;100.00;98346.50;5026899;28;20498;-89
2022/09/23 01:33:16;;;;;;;2.87;1.83;;;6.80;99.90;;;7.70;100.00;98347.31;5027498;28;20485;-89
2022/09/23 01:36:01;;;;;;;3.10;1.80;;;6.80;99.90;;;7.66;100.00;98339.97;5021015;28;20561;-89
2022/09/23 01:38:43;;;;;;;5.07;1.87;;;6.70;99.90;;;7.57;100.00;98341.75;5023638;28;20738;-89
2022/09/23 01:41:54;;;;;;;2.43;2.23;;;6.60;99.90;;;7.59;100.00;98335.44;5026440;28;20508;-89
2022/09/23 01:44:33;;;;;;;2.00;1.80;;;6.60;99.90;;;7.64;100.00;98337.53;5030574;28;20492;-90
2022/09/23 01:47:13;;;;;;;3.70;2.00;;;6.60;99.90;;;7.66;100.00;98335.59;5026683;28;20912;-89
2022/09/23 01:49:51;;;;;;;4.47;2.00;;;6.70;99.90;;;7.66;100.00;98335.59;5024911;28;20505;-89
2022/09/23 01:52:31;;;;;;;3.10;2.00;;;6.70;99.90;;;7.66;100.00;98334.78;5024380;28;20481;-89
2022/09/23 01:55:08;;;;;;;2.30;1.70;;;6.70;99.90;;;7.71;100.00;98327.28;5023988;28;20508;-89
2022/09/23 01:57:44;;;;;;;2.10;1.90;;;6.80;99.90;;;7.67;100.00;98329.41;5029460;28;20552;-89
2022/09/23 02:00:18;;;;;;;6.33;1.77;;;6.60;99.90;;;7.67;100.00;98323.41;5029420;28;20520;-89
2022/09/23 02:02:58;;;;;;;2.00;1.73;;;6.70;99.90;;;7.66;100.00;98324.38;5028611;28;20534;-89
2022/09/23 02:05:36;;;;;;;2.00;1.80;;;6.70;99.90;;;7.60;100.00;98324.03;5027236;28;20538;-88
2022/09/23 02:08:11;;;;;;;2.70;1.73;;;6.60;99.90;;;7.56;100.00;98322.75;5032534;28;20487;-89
2022/09/23 02:10:47;;;;;;;2.33;2.10;;;6.70;99.90;;;7.52;100.00;98323.22;5032165;28;20469;-89
2022/09/23 02:13:23;;;;;;;4.97;2.10;;;6.50;99.90;;;7.49;100.00;98321.75;5032838;28;20491;-90
2022/09/23 02:15:59;;;;;;;2.80;1.90;;;6.60;99.90;;;7.43;100.00;98324.97;5034066;28;20458;-89
2022/09/23 02:18:40;;;;;;;5.03;2.23;;;6.60;99.90;;;7.50;100.00;98319.94;5027593;28;20549;-89
2022/09/23 02:21:11;;;;;;;1.50;1.40;;;6.60;99.90;;;7.41;100.00;98326.94;5029446;28;20491;-89
2022/09/23 02:23:50;;;;;;;2.77;1.87;;;6.40;99.90;;;7.38;100.00;98329.03;5028949;28;20534;-89
2022/09/23 02:26:28;;;;;;;4.90;1.73;;;6.50;99.90;;;7.39;100.00;98320.28;5036502;28;20494;-89
2022/09/23 02:29:10;;;;;;;2.80;1.90;;;6.50;99.90;;;7.41;100.00;98329.53;5032428;28;20466;-89
2022/09/23 02:31:45;;;;;;;2.57;1.80;;;6.50;99.90;;;7.42;100.00;98327.75;5030601;28;20579;-90
2022/09/23 02:34:26;;;;;;;2.80;1.60;;;6.40;99.90;;;7.40;100.00;98327.91;5032345;28;20458;-90
2022/09/23 02:37:08;;;;;;;2.50;1.97;;;6.50;99.90;;;7.41;100.00;98326.94;5029899;28;20875;-89
2022/09/23 02:39:52;;;;;;;2.57;1.90;;;6.50;99.90;;;7.35;100.00;98322.38;5032258;28;20501;-89
2022/09/23 02:42:28;;;;;;;2.33;1.87;;;6.40;99.90;;;7.23;100.00;98336.66;5032222;28;20562;-89
2022/09/23 02:44:58;;;;;;;2.70;1.90;;;6.30;99.90;;;7.21;100.00;98325.59;5030280;28;20484;-89
2022/09/23 02:47:34;;;;;;;2.10;1.60;;;6.30;99.90;;;7.21;100.00;98329.97;5032663;28;20479;-89
2022/09/23 02:50:06;;;;;;;3.10;1.80;;;6.20;99.90;;;7.23;100.00;98334.03;5032243;28;20465;-88
2022/09/23 02:52:37;;;;;;;4.53;2.63;;;6.30;99.90;;;7.25;100.00;98321.72;5034175;28;20545;-89
2022/09/23 02:55:11;;;;;;;2.77;2.10;;;6.30;99.90;;;7.27;100.00;98319.75;5028046;28;20529;-87
2022/09/23 02:57:45;;;;;;;4.80;1.87;;;6.40;99.90;;;7.22;100.00;98322.00;5029096;28;20459;-88
2022/09/23 03:00:15;;;;;;;2.30;1.97;;;6.30;99.90;;;7.15;100.00;98318.41;5028372;28;20448;-88
2022/09/23 03:03:21;;;;;;;2.20;1.67;;;6.10;99.90;;;7.19;100.00;98317.13;5027487;28;20525;-88
2022/09/23 03:05:58;;;;;;;4.07;1.83;;;6.30;99.90;;;7.20;100.00;98318.75;5026596;28;20550;-88
2022/09/23 03:08:49;;;;;;;2.73;1.73;;;6.20;99.90;;;7.23;100.00;98310.63;5028524;28;20506;-89
2022/09/23 03:11:20;;;;;;;2.33;1.80;;;6.20;99.90;;;7.25;100.00;98311.31;5025422;28;20514;-88
2022/09/23 03:14:16;;;;;;;2.33;1.60;;;6.30;99.90;;;7.22;100.00;98316.03;5025256;28;20477;-88
2022/09/23 03:16:57;;;;;;;2.00;1.87;;;6.30;99.90;;;7.24;100.00;98304.47;5027196;28;20537;-88
2022/09/23 03:19:35;;;;;;;1.80;1.70;;;6.30;99.90;;;7.15;100.00;98302.81;5028323;28;20472;-88
2022/09/23 03:22:13;;;;;;;1.70;1.60;;;6.10;99.90;;;7.16;100.00;98301.84;5032802;28;20562;-88
2022/09/23 03:24:45;;;;;;;2.20;1.90;;;6.20;99.90;;;7.16;100.00;98306.22;5032748;28;20461;-88
2022/09/23 03:27:28;;;;;;;2.13;1.80;;;6.20;99.90;;;7.13;100.00;98299.56;5025431;28;20466;-87
2022/09/23 03:29:59;;;;;;;2.47;1.80;;;6.20;99.90;;;7.05;100.00;98305.56;5029638;28;20462;-88
2022/09/23 03:32:30;;;;;;;2.03;1.83;;;6.10;99.90;;;7.00;100.00;98301.81;5012510;28;20480;-88
2022/09/23 03:35:03;;;;;;;2.60;2.00;;;6.00;99.90;;;7.01;100.00;98303.44;5028086;28;20469;-88
2022/09/23 03:37:39;;;;;;;3.83;2.03;;;6.10;99.90;;;7.01;100.00;98303.44;5025785;28;20465;-88
2022/09/23 03:40:16;;;;;;;3.33;1.90;;;6.10;99.90;;;6.99;100.00;98301.00;5028366;28;20501;-88
2022/09/23 03:42:47;;;;;;;3.47;1.63;;;6.20;99.90;;;6.98;100.00;98290.75;5026061;28;20497;-88
2022/09/23 03:45:24;;;;;;;4.23;1.40;;;6.20;99.90;;;6.97;100.00;98291.72;5028380;28;20472;-88
2022/09/23 03:47:55;;;;;;;3.33;2.10;;;6.10;99.90;;;6.90;100.00;98290.75;5026292;28;20460;-89
2022/09/23 03:50:25;;;;;;;1.90;1.67;;;6.00;99.90;;;6.89;100.00;98291.69;5022705;28;20518;-88
2022/09/23 03:52:56;;;;;;;2.80;1.70;;;5.90;99.90;;;6.90;100.00;98286.34;5027912;28;20551;-87
2022/09/23 03:55:25;;;;;;;2.23;2.13;;;6.00;99.90;;;6.93;100.00;98290.41;5026059;28;20476;-87
2022/09/23 03:57:54;;;;;;;3.40;2.30;;;6.10;99.90;;;6.88;100.00;98282.25;5027417;28;20556;-87
2022/09/23 04:00:24;;;;;;;3.60;1.80;;;6.00;99.90;;;6.86;100.00;98279.03;5030198;28;20459;-88
2022/09/23 04:02:52;;;;;;;4.40;2.33;;;6.00;99.90;;;6.86;100.00;98279.03;5027023;28;20498;-87
2022/09/23 04:05:21;;;;;;;5.20;2.00;;;6.00;99.90;;;6.89;100.00;98283.91;5026812;28;20455;-88
2022/09/23 04:07:51;;;;;;;16.43;2.20;;;5.90;99.90;;;6.88;100.00;98277.06;5029954;28;20579;-86
2022/09/23 04:10:22;;;;;;;3.17;1.90;;;5.90;99.90;;;6.87;100.00;98278.06;5024325;28;20475;-87
2022/09/23 04:12:51;;;;;;;3.10;2.00;;;5.90;99.90;;;6.87;100.00;98272.88;5027334;28;20518;-88
2022/09/23 04:15:20;;;;;;;3.80;2.03;;;5.90;99.90;;;6.89;100.00;98274.31;5022868;28;20556;-87
2022/09/23 04:17:49;;;;;;;2.53;2.20;;;5.90;99.90;;;6.88;100.00;98274.47;5024656;28;20469;-87
2022/09/23 04:20:19;;;;;;;4.47;2.27;;;5.90;99.90;;;6.84;100.00;98270.56;5025773;28;20527;-88
2022/09/23 04:22:48;;;;;;;1.93;1.73;;;5.80;99.90;;;6.80;100.00;98270.09;5025743;28;20494;-87
2022/09/23 04:25:17;;;;;;;14.07;2.10;;;5.80;99.90;;;6.78;100.00;98277.19;5025036;28;20505;-88
2022/09/23 04:27:47;;;;;;;1.80;1.60;;;5.80;99.90;;;6.83;100.00;98274.97;5023665;28;20585;-88
2022/09/23 04:30:17;;;;;;;4.03;2.30;;;5.90;99.90;;;6.81;100.00;98270.88;5022936;28;20613;-87
2022/09/23 04:32:47;;;;;;;2.47;2.03;;;5.80;99.90;;;6.77;100.00;98266.97;5025943;28;20472;-88
2022/09/23 04:35:16;;;;;;;1.97;1.80;;;5.70;99.90;;;6.70;100.00;98266.78;5027349;28;20500;-88
2022/09/23 04:37:48;;;;;;;2.60;2.13;;;5.70;99.90;;;6.68;100.00;98267.91;5027644;28;20506;-88
2022/09/23 04:40:18;;;;;;;3.07;2.53;;;5.80;99.90;;;6.68;100.00;98268.72;5025613;28;20500;-88
2022/09/23 04:42:49;;;;;;;3.33;2.07;;;5.70;99.90;;;6.69;100.00;98262.56;5026217;28;20480;-88
2022/09/23 04:45:17;;;;;;;1.90;1.80;;;5.80;99.90;;;6.69;100.00;98266.94;5022390;28;20504;-87
2022/09/23 04:47:46;;;;;;;2.60;1.80;;;5.80;99.90;;;6.69;100.00;98269.53;5024463;28;20495;-88
2022/09/23 04:50:15;;;;;;;2.97;1.93;;;5.70;99.90;;;6.64;100.00;98264.00;5026965;28;21538;-87
2022/09/23 04:52:44;;;;;;;4.20;1.90;;;5.70;99.90;;;6.68;100.00;98268.72;5026132;28;20476;-87
2022/09/23 04:55:13;;;;;;;2.20;1.83;;;5.70;99.90;;;6.69;100.00;98267.75;5027405;28;20558;-88
2022/09/23 04:57:43;;;;;;;5.67;2.10;;;5.70;99.90;;;6.63;100.00;98262.38;5023706;28;20888;-88
2022/09/23 05:00:15;;;;;;;5.20;2.57;;;5.60;99.90;;;6.65;100.00;98268.22;5025992;28;20455;-88
2022/09/23 05:02:46;;;;;;;2.30;2.10;;;5.60;99.90;;;6.65;100.00;98270.81;5027244;28;20473;-88
2022/09/23 05:05:19;;;;;;;9.77;2.30;;;5.60;99.90;;;6.64;100.00;98274.38;5028898;28;20716;-88
2022/09/23 05:07:49;;;;;;;2.33;2.00;;;5.60;99.90;;;6.64;100.00;98277.81;5025822;28;20545;-88
2022/09/23 05:10:18;;;;;;;4.30;1.97;;;5.60;99.90;;;6.57;100.00;98275.00;5027908;28;20552;-88
2022/09/23 05:12:47;;;;;;;3.73;1.90;;;5.60;99.90;;;6.62;100.00;98281.53;5026738;28;20471;-87
2022/09/23 05:15:17;;;;;;;2.17;1.67;;;5.70;99.90;;;6.63;100.00;98283.16;5042075;28;20547;-88
2022/09/23 05:17:47;;;;;;;1.97;1.77;;;5.70;99.90;;;6.64;100.00;98279.56;5025351;28;20477;-88
2022/09/23 05:20:18;;;;;;;1.80;1.70;;;5.60;99.90;;;6.62;100.00;98277.16;5024354;28;20529;-88
2022/09/23 05:22:46;;;;;;;2.20;1.80;;;5.60;99.90;;;6.62;100.00;98269.38;5025536;28;20477;-86
2022/09/23 05:25:15;;;;;;;2.43;2.10;;;5.60;99.90;;;6.61;100.00;98270.31;5024444;28;20492;-87
2022/09/23 05:27:44;;;;;;;2.53;1.80;;;5.60;99.90;;;6.56;100.00;98273.38;5023043;28;20569;-88
2022/09/23 05:30:14;;;;;;;2.83;1.80;;;5.50;99.90;;;6.51;100.00;98275.66;5024264;28;20492;-88
2022/09/23 05:32:44;;;;;;;3.90;1.97;;;5.60;99.90;;;6.53;100.00;98278.88;5029051;28;20544;-89
2022/09/23 05:35:14;;;;;;;4.70;2.03;;;5.60;99.90;;;6.51;100.00;98267.84;5029127;28;20503;-88
2022/09/23 05:37:43;;;;;;;6.37;2.40;;;5.50;99.90;;;6.46;100.00;98267.50;5026190;28;20464;-88
2022/09/23 05:40:12;;;;;;;2.40;2.07;;;5.60;99.90;;;6.49;100.00;98267.19;5021687;28;20877;-89
2022/09/23 05:42:41;;;;;;;2.20;1.63;;;5.60;99.90;;;6.47;100.00;98269.13;5023590;28;21066;-89
2022/09/23 05:45:10;;;;;;;3.03;1.47;;;5.60;99.90;;;6.41;100.00;98267.16;5032187;28;20486;-87
2022/09/23 05:47:39;;;;;;;4.30;1.97;;;5.50;99.90;;;6.40;100.00;98273.31;5028337;28;20939;-88
2022/09/23 05:50:11;;;;;;;5.07;3.17;;;5.40;99.90;;;6.44;100.00;98279.84;5031070;28;20572;-89
2022/09/23 05:52:40;;;;;;;4.63;2.23;;;5.40;99.90;;;6.39;100.00;98278.66;5028928;28;20487;-88
2022/09/23 05:55:10;;;;;;;2.50;2.30;;;5.40;99.90;;;6.45;100.00;98273.69;5026506;28;20483;-88
2022/09/23 05:57:39;;;;;;;2.60;2.07;;;5.50;99.90;;;6.43;100.00;98283.38;5030082;28;20514;-88
2022/09/23 06:00:12;;;;;;;5.97;2.27;;;5.40;99.90;;;6.45;100.00;98284.06;5031157;28;20452;-87
2022/09/23 06:02:41;;;;;;;3.60;2.20;;;5.50;99.90;;;6.47;100.00;98281.28;5027415;28;20502;-88
2022/09/23 06:05:12;;;;;;;5.17;2.60;;;5.50;99.90;;;6.49;100.00;98280.16;5026238;28;20537;-88
2022/09/23 06:07:41;;;;;;;3.17;2.20;;;5.50;99.90;;;6.51;100.00;98280.84;5028190;28;20629;-87
2022/09/23 06:10:10;;;;;;;3.27;2.30;;;5.60;99.90;;;6.47;100.00;98271.72;5033043;28;21037;-89
2022/09/23 06:12:41;;;;;;;4.73;2.60;;;5.60;99.90;;;6.46;100.00;98277.88;5030176;28;21037;-88
2022/09/23 06:15:11;;;;;;;5.87;2.67;;;5.60;99.90;;;6.44;100.00;98272.03;5025679;28;20473;-88
2022/09/23 06:17:40;;;;;;;3.67;2.37;;;5.60;99.90;;;6.46;100.00;98277.88;5027320;28;20575;-88
2022/09/23 06:20:12;;;;;;;2.10;1.90;;;5.60;99.90;;;6.50;100.00;98271.41;5028106;28;20453;-88
2022/09/23 06:22:41;;;;;;;6.87;2.20;;;5.60;99.90;;;6.49;100.00;98267.19;5032868;28;20469;-88
2022/09/23 06:25:11;;;;;;;3.53;2.50;;;5.70;99.90;;;6.50;100.00;98271.41;5032386;28;20504;-88
2022/09/23 06:27:39;;;;;;;3.20;2.33;;;5.60;99.90;;;6.53;100.00;98262.47;5034198;28;20481;-88
2022/09/23 06:30:12;;;;;;;2.30;2.07;;;5.60;99.90;;;6.53;100.00;98265.91;5029822;28;20479;-88
2022/09/23 06:32:41;;;;;;;2.50;2.13;;;5.60;99.90;;;6.57;100.00;98263.81;5029468;28;20492;-88
2022/09/23 06:35:12;;;;;;;5.13;2.30;;;5.60;99.90;;;6.57;100.00;98264.63;5031945;28;20463;-88
2022/09/23 06:37:55;;;;;;;2.60;2.23;;;5.60;99.90;;;6.57;100.00;98267.22;5045018;28;20504;-89
2022/09/23 06:40:24;;;;;;;7.27;2.57;;;5.60;99.90;;;6.58;100.00;98266.25;5030650;28;21028;-88
2022/09/23 06:42:58;;;;;;;4.40;2.57;;;5.60;99.90;;;6.63;100.00;98270.97;5029864;28;20529;-88
2022/09/23 06:45:28;;;;;;;4.40;2.87;;;5.70;99.90;;;6.67;100.00;98272.28;5030450;28;20922;-89
2022/09/23 06:47:58;;;;;;;4.77;2.97;;;5.70;99.90;;;6.73;100.00;98270.88;5028172;28;21032;-88
2022/09/23 06:50:29;;;;;;;3.07;2.50;;;5.80;99.90;;;6.77;100.00;98274.78;5023295;28;20560;-88
2022/09/23 06:52:58;;;;;;;2.73;2.53;;;5.90;99.90;;;6.79;100.00;98278.03;5027012;28;20477;-88
2022/09/23 06:55:27;;;;;;;2.60;2.30;;;6.00;99.90;;;6.80;100.00;98279.66;5031319;28;20965;-88
2022/09/23 06:57:58;;;;;;;2.40;2.10;;;5.90;99.90;;;6.85;100.00;98278.19;5026029;28;20519;-87
2022/09/23 07:00:28;;;;;;;5.57;2.80;;;6.00;99.90;;;6.87;100.00;98285.84;5026502;28;20545;-88
2022/09/23 07:02:57;;;;;;;6.93;2.40;;;6.00;99.90;;;6.93;100.00;98285.22;5029829;28;21009;-88
2022/09/23 07:05:26;;;;;;;2.90;2.37;;;6.10;99.90;;;6.95;100.00;98283.25;5031845;28;20551;-87
2022/09/23 07:07:57;;;;;;;3.77;2.30;;;6.10;99.90;;;6.99;100.00;98284.56;5029755;28;20947;-88
2022/09/23 07:10:27;;;;;;;53.43;29.13;;;6.10;99.90;;;7.08;100.00;98278.41;5031163;28;20587;-87
2022/09/23 07:13:01;;;;;;;71.60;36.03;;;6.20;99.90;;;7.12;100.00;98282.31;5026776;28;20508;-87
2022/09/23 07:15:31;;;;;;;11.37;6.27;;;6.30;99.90;;;7.17;100.00;98287.06;5025135;28;20569;-88
2022/09/23 07:18:00;;;;;;;5.03;3.73;;;6.30;99.90;;;7.20;100.00;98281.53;5023399;28;20473;-83
2022/09/23 07:20:31;;;;;;;10.43;3.57;;;6.40;99.90;;;7.25;100.00;98281.88;5025756;28;20859;-89
2022/09/23 07:23:03;;;;;;;4.50;3.07;;;6.40;99.90;;;7.30;100.00;98277.81;5032324;28;20553;-88
2022/09/23 07:25:33;;;;;;;6.83;2.57;;;6.50;99.90;;;7.34;100.00;98276.53;5027609;28;20608;-88
2022/09/23 07:28:02;;;;;;;7.10;2.80;;;6.50;99.90;;;7.39;100.00;98271.63;5027579;28;20565;-88
2022/09/23 07:30:32;;;;;;;6.00;3.40;;;6.60;99.90;;;7.44;100.00;98274.59;5025606;28;20483;-89
2022/09/23 07:33:01;;;;;;;3.63;2.33;;;6.60;99.90;;;7.47;100.00;98269.06;5022109;28;21039;-88
2022/09/23 07:35:42;;;;;;;13.73;7.40;;;6.60;99.90;;;7.48;100.00;98270.69;5024020;28;20480;-90
2022/09/23 07:38:12;;;;;;;5.70;3.70;;;6.70;99.90;;;7.51;100.00;98270.38;5037545;28;20994;-88
2022/09/23 07:40:41;;;;;;;9.73;3.53;;;6.70;99.90;;;7.56;100.00;98269.88;5029882;28;20488;-88
2022/09/23 07:43:10;;;;;;;4.07;2.63;;;6.70;99.90;;;7.62;100.00;98273.63;5026307;28;20933;-88
2022/09/23 07:45:42;;;;;;;3.00;2.70;;;6.80;99.90;;;7.66;100.00;98270.53;5028171;28;20530;-88
2022/09/23 07:48:11;;;;;;;2.70;2.37;;;6.80;99.90;;;7.72;100.00;98271.66;5028313;28;20505;-89
2022/09/23 07:50:41;;;;;;;5.70;2.50;;;6.90;99.90;;;7.78;100.00;98273.59;5032048;28;20442;-88
2022/09/23 07:53:13;;;;;;;6.73;3.10;;;6.90;99.90;;;7.84;100.00;98273.78;5027542;28;20484;-88
2022/09/23 07:55:42;;;;;;;5.23;2.63;;;7.00;99.90;;;7.90;100.00;98280.94;5026604;28;20516;-78
2022/09/23 07:58:10;;;;;;;7.43;2.30;;;7.00;99.90;;;7.96;100.00;98277.66;5025549;28;20467;-88
2022/09/23 08:00:39;;;;;;;3.20;2.83;;;7.10;99.90;;;8.03;100.00;98275.22;5027251;28;20481;-87
2022/09/23 08:03:08;;;;;;;8.27;2.63;;;7.20;99.90;;;8.10;100.00;98269.19;5031504;28;20493;-89
2022/09/23 08:05:38;;;;;;;71.03;31.87;;;7.20;99.90;;;8.15;100.00;98268.69;5026872;28;20539;-89
2022/09/23 08:08:07;;;;;;;8.07;4.80;;;7.40;99.90;;;8.21;100.00;98267.22;5025615;28;20925;-86
2022/09/23 08:10:37;;;;;;;6.03;3.10;;;7.40;99.90;;;8.29;100.00;98270.66;5022454;28;21221;-87
2022/09/23 08:13:08;;;;;;;4.33;3.27;;;7.50;99.90;;;8.35;100.00;98269.16;5028450;28;20514;-88
2022/09/23 08:15:37;;;;;;;4.70;3.00;;;7.50;99.90;;;8.42;100.00;98259.69;5026148;28;20451;-86
2022/09/23 08:18:06;;;;;;;3.70;2.80;;;7.60;99.90;;;8.48;100.00;98267.66;5030274;28;20485;-88
2022/09/23 08:20:46;;;;;;;3.50;2.87;;;7.70;99.90;;;8.55;100.00;98262.56;5030771;28;20480;-88
2022/09/23 08:23:17;;;;;;;4.77;3.20;;;7.80;99.90;;;8.62;100.00;98262.69;5032495;28;20489;-88
2022/09/23 08:25:59;;;;;;;5.33;3.20;;;7.80;99.90;;;8.68;100.00;98265.44;5027708;28;20494;-88
2022/09/23 08:28:28;;;;;;;4.30;3.13;;;7.90;99.90;;;8.74;100.00;98258.75;5030372;28;20447;-90
2022/09/23 08:30:59;;;;;;;3.77;3.00;;;7.90;99.90;;;8.80;100.00;98258.06;5031977;28;21126;-90
2022/09/23 08:33:39;;;;;;;4.67;2.90;;;8.00;99.90;;;8.85;100.00;98247.94;5037144;28;20446;-89
2022/09/23 08:36:16;;;;;;;5.37;3.17;;;8.00;99.90;;;8.91;100.00;98249.88;5037136;28;20459;-90
2022/09/23 08:38:45;;;;;;;6.63;3.30;;;8.10;99.90;;;8.99;100.00;98247.19;5027515;28;20445;-88
2022/09/23 08:41:26;;;;;;;45.10;18.77;;;8.20;99.90;;;9.05;100.00;98246.53;5027769;28;20470;-87
2022/09/23 08:43:59;;;;;;;18.00;7.43;;;8.30;99.90;;;9.12;100.00;98233.59;5025265;28;20899;-88
2022/09/23 08:46:33;;;;;;;9.00;3.60;;;8.30;99.90;;;9.20;100.00;98239.56;5026553;28;20911;-88
2022/09/23 08:49:05;;;;;;;5.10;3.70;;;8.40;99.90;;;9.29;100.00;98235.13;5023684;28;20458;-88
2022/09/23 08:51:44;;;;;;;3.00;2.67;;;8.50;99.90;;;9.37;100.00;98232.47;5026609;28;20466;-87
2022/09/23 08:54:18;;;;;;;3.50;2.70;;;8.60;99.90;;;9.45;100.00;98242.81;5031219;28;20474;-88
2022/09/23 08:56:52;;;;;;;5.70;3.70;;;8.80;99.90;;;9.53;100.00;98237.53;5024934;28;20483;-87
2022/09/23 08:59:31;;;;;;;4.67;2.93;;;8.80;99.90;;;9.61;100.00;98240.09;5026384;28;20446;-89
2022/09/23 09:02:06;;;;;;;5.80;3.73;;;8.90;99.90;;;9.69;100.00;98241.81;5021698;28;20487;-89
2022/09/23 09:04:43;;;;;;;4.40;3.30;;;9.00;99.90;;;9.76;100.00;98237.50;5027029;28;20481;-88
2022/09/23 09:07:19;;;;;;;3.53;3.00;;;9.10;99.90;;;9.84;100.00;98232.22;5025795;28;21008;-88
2022/09/23 09:10:15;;;;;;;5.70;3.10;;;9.20;99.90;;;9.95;100.00;98229.19;5024521;28;20447;-87
2022/09/23 09:12:49;;;;;;;3.93;2.43;;;9.30;99.90;;;10.06;100.00;98236.59;5025236;28;20454;-85
2022/09/23 09:15:22;;;;;;;6.80;3.10;;;9.40;99.90;;;10.15;100.00;98229.47;5023755;28;20972;-87
2022/09/23 09:18:05;;;;;;;4.83;3.00;;;9.60;99.90;;;10.25;100.00;98235.25;5024962;28;20969;-87
2022/09/23 09:20:41;;;;;;;5.90;3.20;;;9.60;99.90;;;10.32;100.00;98223.91;5026174;28;20554;-87
2022/09/23 09:23:23;;;;;;;5.03;3.20;;;9.80;99.90;;;10.43;100.00;98226.06;5024203;28;20466;-82
2022/09/23 09:25:54;;;;;;;7.77;5.20;;;9.90;99.90;;;10.52;100.00;98214.50;5023280;28;20489;-88
2022/09/23 09:28:29;;;;;;;24.00;10.23;;;10.00;99.90;;;10.63;100.00;98217.66;5021683;28;20477;-86
2022/09/23 09:31:03;;;;;;;3.30;2.77;;;10.10;99.90;;;10.73;100.00;98215.56;5024890;28;20451;-87
2022/09/23 09:33:41;;;;;;;3.30;2.37;;;10.20;99.90;;;10.82;100.00;98201.38;5025012;28;20458;-86
2022/09/23 09:36:32;;;;;;;15.93;2.50;;;10.30;99.90;;;10.93;100.00;98203.53;5040052;28;20466;-85
2022/09/23 09:39:01;;;;;;;2.63;2.10;;;10.40;99.90;;;11.02;100.00;98203.22;5022648;28;20454;-87
2022/09/23 09:41:31;;;;;;;6.37;2.20;;;10.50;99.90;;;11.12;100.00;98200.28;5023878;28;20865;-88
2022/09/23 09:44:16;;;;;;;6.50;2.03;;;10.60;99.90;;;11.23;100.00;98199.78;5023763;28;20472;-86
2022/09/23 09:47:00;;;;;;;2.60;2.30;;;10.70;99.90;;;11.35;100.00;98198.28;5024642;28;20497;-87
2022/09/23 09:49:41;;;;;;;4.27;2.33;;;10.90;99.90;;;11.47;100.00;98193.34;5024393;28;20468;-87
2022/09/23 09:52:23;;;;;;;2.40;2.20;;;11.10;99.90;;;11.58;100.00;98187.63;5025787;28;20497;-87
2022/09/23 09:54:54;;;;;;;2.43;1.87;;;11.20;99.90;;;11.68;100.00;98190.72;5026542;28;20520;-87
2022/09/23 09:57:33;;;;;;;5.40;1.87;;;11.30;99.90;;;11.77;100.00;98183.53;5025605;28;20453;-87
2022/09/23 10:00:35;;;;;;;2.70;1.90;;;11.40;99.90;;;11.89;100.00;98174.16;5024593;28;20549;-88
2022/09/23 10:03:25;;;;;;;5.43;2.13;;;11.40;99.90;;;11.98;100.00;98178.25;5019252;28;20508;-87
2022/09/23 10:05:56;;;;;;;5.60;2.38;;;11.50;99.90;;;12.07;100.00;98182.34;5020537;28;20457;-86
2022/09/23 10:08:31;;;;;;;2.60;1.90;;;11.60;99.90;;;12.17;100.00;98179.38;5022071;28;20481;-84
2022/09/23 10:11:04;;;;;;;14.43;7.80;;;11.70;99.90;;;12.27;100.00;98175.38;5025564;28;20916;-85
2022/09/23 10:13:33;;;;;;;5.80;2.93;;;11.80;99.90;;;12.36;100.00;98176.03;5022525;28;20497;-83
2022/09/23 10:16:05;;;;;;;10.13;3.00;;;11.90;99.90;;;12.42;100.00;98176.06;5017539;28;20996;-85
2022/09/23 10:18:38;;;;;;;9.17;2.23;;;12.00;99.90;;;12.50;100.00;98178.50;5016163;28;20576;-85
2022/09/23 10:21:11;;;;;;;4.03;1.97;;;12.10;99.90;;;12.58;100.00;98165.22;5017336;28;20480;-84
2022/09/23 10:23:44;;;;;;;3.30;1.93;;;12.10;99.90;;;12.65;100.00;98169.69;5018122;28;20961;-84
2022/09/23 10:26:16;;;;;;;2.30;1.83;;;12.20;99.90;;;12.71;100.00;98174.94;5018298;28;20576;-84
2022/09/23 10:28:52;;;;;;;3.30;1.90;;;12.30;99.90;;;12.78;100.00;98167.09;5018067;28;20532;-85
2022/09/23 10:31:27;;;;;;;1.67;1.50;;;12.30;99.90;;;12.83;100.00;98167.31;5021949;28;20477;-84
2022/09/23 10:33:59;;;;;;;2.27;1.53;;;12.40;99.90;;;12.89;100.00;98169.16;5021749;28;20545;-85
2022/09/23 10:36:30;;;;;;;1.87;1.50;;;12.50;99.90;;;12.93;100.00;98165.13;5025926;28;20587;-84
2022/09/23 10:48:08;;;;;;;1.97;1.87;;;12.70;99.90;;;13.20;100.00;98158.94;5019917;28;20498;-85
2022/09/23 10:50:46;;;;;;;3.00;1.57;;;12.90;99.90;;;13.32;100.00;98148.66;5021901;28;20470;-79
2022/09/23 10:53:30;;;;;;;3.17;1.90;;;13.00;99.90;;;13.47;100.00;98150.06;5037017;28;20473;-91
2022/09/23 10:56:20;;;;;;;3.67;1.70;;;13.10;99.90;;;13.60;100.00;98147.44;5038015;28;20290;-91
2022/09/23 10:59:33;;;;;;;3.20;2.60;;;13.20;99.90;;;13.70;100.00;98149.66;5035138;28;20524;-84
2022/09/23 11:02:22;;;;;;;5.03;3.70;;;13.20;99.90;;;13.79;100.00;98152.84;5007196;28;20466;-83